Decoded Metar for CYPD (PORT HAWKESBURY in NS, CANADA) (IATA:YPD) | Meteo·Mobile Aviation Weather
aviador You're here:

CYPD Decoded Metar

PORT HAWKESBURY in NS, CANADA
Report Time2018-12-10 15:31:00
UTC Time2018-12-10 16:09:08
Flight Rules ifr IFR
Wind270° at 10 Gusting to 15 kt
W.Decomp.*RWY 29: 10.0 kt HW 0.2 kt LCW
W.Rank270° ranks 5
Current wind is above 270° avg. (9.6)
Visibility4023 m
Phenomena:Light Snow
Clouds:Few 012 Hf
Broken 024 Hf
Overcast 028 Hf
Expected CloudBase > 800 ft AGL from Temp-Dew spread
Ceiling2,400 ft
Temp-4°C (ISA -18)
Dew Point-6°C (86% RH)
AAT-10.3°C
QNH1011 hPa
Density Alt-1,752 ft
Elevation374 ft
Report Wrong Elevation
Raw Report
SPECI CYPD 101531Z AUTO 27010G15KT 2 1/2SM -SN FEW012 BKN024 OVC028 M04/M06 A2986 RMK SLP122=

Extra information for CYPD:More info

Metar Taf Metar & Taf Last 4 Metars F.Rules Stats Wind Profile Meteogram Temp Stats Airport Information Weather charts Add Link Nearby VenuesMetar ALERT Operation Metar Decoded Social comments